• Join FlightAware (Why Join?)
  • Login
  • US Flag 
08:26AM EDT


 

Airport Tracker/Info


-or-


 

Live Flight TrackerFlight Track Log ✈ N631AD ✈ 30-Apr-2012 ✈ KVLL - KMDW

Flight Track Log - Related Links

Times and Time Zones

All times are in EDT time to prevent confusion due to time zone crossing. See the N631AD flight status page for this flight to view local times or setup timezone preferences in your user account.

Time Position Orientation Groundspeed Altitude Reporting Facility
EDT Latitude Longitude Course Direction KTS MPH feet Rate Location/Type
12:55PM 42.5417 -83.1617 24° Northeast 91 105 1,000  Level Cleveland Center
12:56PM 42.5544 -83.1539 284° West 105 121 1,300 540 Climbing Cleveland Center
12:57PM 42.5619 -83.1936 286° West 125 144 1,900 660 Climbing Cleveland Center
12:58PM 42.5714 -83.2392 291° West 132 152 2,700 540 Climbing Cleveland Center
12:59PM 42.5828 -83.2792 276° West 116 133 3,000 480 Climbing Cleveland Center
01:00PM 42.5861 -83.3217 255° West 105 121 3,700 540 Climbing Cleveland Center
01:01PM 42.5789 -83.3578 264° West 94 108 4,200 540 Climbing Cleveland Center
01:02PM 42.5758 -83.3944 245° Southwest 102 117 4,800 360 Climbing Cleveland Center
01:03PM 42.5625 -83.4333 243° Southwest 110 127 5,000 60 Climbing Cleveland Center
01:04PM 42.5469 -83.4747 244° Southwest 127 146 5,000  Level Cleveland Center
01:05PM 42.5289 -83.5247 240° Southwest 144 166 5,000  Level Cleveland Center
01:06PM 42.5111 -83.5661 243° Southwest 134 154 5,000  Level Cleveland Center
01:07PM 42.4933 -83.6133 243° Southwest 135 155 5,000  Level Cleveland Center
01:08PM 42.4775 -83.6547 244° Southwest 133 153 5,100 420 Climbing Cleveland Center
01:09PM 42.4639 -83.6933 249° West 96 110 5,900 300 Climbing Cleveland Center
01:10PM 42.4500 -83.7425 253° West 111 128 6,000  Climbing FAA TRACON SMA TRACON (SMA)
01:11PM 42.4433 -83.7725 253° West 130 150 6,000  Level FAA TRACON SMA TRACON (SMA)
01:12PM 42.4361 -83.8042 252° West 125 144 6,000  Level FAA TRACON SMA TRACON (SMA)
01:12PM 42.4297 -83.8314 253° West 122 140 6,000  Level FAA TRACON SMA TRACON (SMA)
01:13PM 42.4219 -83.8650 254° West 124 143 6,000  Level FAA TRACON SMA TRACON (SMA)
01:14PM 42.4156 -83.8950 253° West 128 147 6,000 60 Level FAA TRACON SMA TRACON (SMA)
01:14PM 42.4081 -83.9272 253° West 128 147 6,100 60 Climbing FAA TRACON SMA TRACON (SMA)
01:15PM 42.4011 -83.9578 252° West 127 146 6,100 -120 Level FAA TRACON SMA TRACON (SMA)
01:16PM 42.3933 -83.9900 253° West 129 148 6,000 -120 Descending FAA TRACON SMA TRACON (SMA)
01:16PM 42.3867 -84.0203 253° West 130 150 6,000  Level FAA TRACON SMA TRACON (SMA)
01:17PM 42.3806 -84.0481 252° West 130 150 6,000  Level FAA TRACON SMA TRACON (SMA)
01:18PM 42.3719 -84.0839 254° West 130 150 6,000  Level FAA TRACON SMA TRACON (SMA)
01:18PM 42.3653 -84.1144 253° West 131 151 6,000  Level FAA TRACON SMA TRACON (SMA)
01:19PM 42.3583 -84.1458 253° West 131 151 6,000  Level FAA TRACON SMA TRACON (SMA)
01:20PM 42.3514 -84.1758 251° West 129 148 6,000  Level FAA TRACON SMA TRACON (SMA)
01:20PM 42.3433 -84.2081 253° West 130 150 6,000  Level FAA TRACON SMA TRACON (SMA)
01:21PM 42.3364 -84.2389 254° West 130 150 6,000  Level FAA TRACON SMA TRACON (SMA)
01:22PM 42.3300 -84.2683 253° West 128 147 6,000  Level FAA TRACON SMA TRACON (SMA)
01:22PM 42.3228 -84.3000 251° West 127 146 6,000  Level FAA TRACON SMA TRACON (SMA)
01:23PM 42.3153 -84.3303 252° West 127 146 6,000  Level FAA TRACON SMA TRACON (SMA)
01:24PM 42.3083 -84.3592 253° West 126 145 6,000  Level FAA TRACON SMA TRACON (SMA)
01:24PM 42.3011 -84.3914 252° West 128 147 6,000  Level FAA TRACON SMA TRACON (SMA)
01:25PM 42.2936 -84.4219 254° West 128 147 6,000  Level FAA TRACON SMA TRACON (SMA)
01:26PM 42.2875 -84.4514 253° West 126 145 6,000  Level FAA TRACON SMA TRACON (SMA)
01:26PM 42.2803 -84.4828 251° West 126 145 6,000  Level FAA TRACON SMA TRACON (SMA)
01:27PM 42.2725 -84.5125 254° West 126 145 6,000  Level FAA TRACON SMA TRACON (SMA)
01:28PM 42.2669 -84.5386 253° West 127 146 6,000  Level FAA TRACON SMA TRACON (SMA)
01:31PM 42.2342 -84.6800 251° West 127 146 6,000  Level FAA TRACON SMA TRACON (SMA)
01:31PM 42.2267 -84.7100 253° West 129 148 6,000  Level FAA TRACON SMA TRACON (SMA)
01:32PM 42.2197 -84.7408 251° West 128 147 6,000  Level FAA TRACON SMA TRACON (SMA)
01:33PM 42.2125 -84.7689 252° West 127 146 6,000  Level FAA TRACON SMA TRACON (SMA)
01:33PM 42.2047 -84.8008 253° West 129 148 6,000  Level FAA TRACON SMA TRACON (SMA)
01:34PM 42.1972 -84.8331 252° West 130 150 6,000  Level FAA TRACON SMA TRACON (SMA)
01:35PM 42.1911 -84.8583 248° West 130 150 6,000 -120 Level FAA TRACON SMA TRACON (SMA)
01:35PM 42.1822 -84.8878 250° West 130 150 5,900 -120 Descending FAA TRACON SMA TRACON (SMA)
01:36PM 42.1736 -84.9194 252° West 129 148 5,900  Level FAA TRACON SMA TRACON (SMA)
01:37PM 42.1658 -84.9508 251° West 130 150 5,900 60 Level FAA TRACON SMA TRACON (SMA)
01:37PM 42.1581 -84.9819 255° West 130 150 6,000  Climbing FAA TRACON SMA TRACON (SMA)
01:38PM 42.1514 -85.0150 250° West 132 152 5,900 -120 Descending FAA TRACON SMA TRACON (SMA)
01:39PM 42.1433 -85.0450 249° West 128 147 5,900  Level FAA TRACON SMA TRACON (SMA)
01:39PM 42.1342 -85.0767 252° West 129 148 5,900  Level FAA TRACON SMA TRACON (SMA)
01:40PM 42.1269 -85.1067 252° West 129 148 5,900  Level FAA TRACON SMA TRACON (SMA)
02:18PM 41.7000 -86.8500 246° West 123 142 6,000  Climbing Chicago TRACON
02:19PM 41.6833 -86.9000 236° Southwest 128 147 6,000  Level Chicago TRACON
02:20PM 41.6667 -86.9333 270° West 132 152 6,000  Level Chicago TRACON
02:21PM 41.6667 -86.9833 236° Southwest 126 145 6,000  Level Chicago TRACON
02:22PM 41.6500 -87.0167 246° West 127 146 6,000  Level Chicago TRACON
02:23PM 41.6333 -87.0667 270° West 124 143 6,000  Level Chicago TRACON
02:24PM 41.6333 -87.1167 246° West 127 146 6,000 -240 Level Chicago TRACON
02:25PM 41.6167 -87.1667 270° West 143 165 5,500 -480 Descending Chicago TRACON
02:26PM 41.6167 -87.2167 246° West 153 176 5,100 -480 Descending Chicago TRACON
02:27PM 41.6000 -87.2667 252° West 156 180 4,600 -540 Descending Chicago TRACON
02:28PM 41.5833 -87.3333 270° West 155 178 4,100 -300 Descending Chicago TRACON
02:29PM 41.5833 -87.3833 246° West 138 159 4,000 -60 Descending Chicago TRACON
02:30PM 41.5667 -87.4333 246° West 134 154 4,000  Level Chicago TRACON